Time;durP1;ratioP1;P1;durP2;ratioP2;P2;SDS_P1;SDS_P2;PMS_P1;PMS_P2;Temp;Humidity;BMP_temperature;BMP_pressure;BME280_temperature;BME280_humidity;BME280_pressure;Samples;Min_cycle;Max_cycle;Signal;HPM_P1;HPM_P2
2021/12/24 00:02:06;;;;;;;;;;;-0.20;85.70;;;;;;5006239;28;88768;-45
2021/12/24 00:04:31;;;;;;;;;;;-0.10;85.80;;;;;;5005242;28;90127;-45
2021/12/24 00:06:57;;;;;;;;;;;-0.20;85.60;;;;;;5005698;28;87154;-45
2021/12/24 00:09:25;;;;;;;;;;;-0.20;85.80;;;;;;5005202;28;89020;-45
2021/12/24 00:11:54;;;;;;;;;;;-0.20;85.70;;;;;;5008366;28;88712;-45
2021/12/24 00:14:19;;;;;;;;;;;-0.20;85.80;;;;;;5005476;28;87762;-45
2021/12/24 00:16:51;;;;;;;;;;;-0.20;85.80;;;;;;5005496;28;89425;-45
2021/12/24 00:22:25;;;;;;;;;;;-0.10;85.90;;;;;;5005819;28;86893;-45
2021/12/24 00:35:47;;;;;;;;;;;-0.20;85.80;;;;;;5004760;28;87894;-45
2021/12/24 00:38:13;;;;;;;;;;;-0.20;85.90;;;;;;5005070;28;90118;-45
2021/12/24 00:40:48;;;;;;;;;;;-0.20;86.00;;;;;;5005101;28;86904;-45
2021/12/24 00:43:14;;;;;;;;;;;-0.20;85.70;;;;;;5005267;28;88725;-45
2021/12/24 00:45:42;;;;;;;;;;;-0.20;85.80;;;;;;5004836;28;88654;-45
2021/12/24 00:48:09;;;;;;;;;;;-0.20;86.00;;;;;;5005139;28;86873;-45
2021/12/24 00:50:55;;;;;;;;;;;-0.20;85.80;;;;;;5004771;28;89023;-45
2021/12/24 00:56:00;;;;;;;;;;;-0.20;86.10;;;;;;5006780;28;86890;-45
2021/12/24 00:58:25;;;;;;;;;;;-0.20;85.80;;;;;;5004449;28;89408;-45
2021/12/24 01:00:51;;;;;;;;;;;-0.20;85.90;;;;;;5004154;28;88062;-45
2021/12/24 01:03:17;;;;;;;;;;;-0.20;86.10;;;;;;5005085;28;89974;-45
2021/12/24 01:05:43;;;;;;;;;;;-0.20;86.00;;;;;;5004377;28;89478;-45
2021/12/24 01:08:09;;;;;;;;;;;-0.20;85.70;;;;;;5005000;28;87129;-45
2021/12/24 01:10:39;;;;;;;;;;;-0.20;85.90;;;;;;5004934;28;89336;-45
2021/12/24 01:13:05;;;;;;;;;;;-0.20;86.00;;;;;;5004277;28;91013;-45
2021/12/24 01:15:33;;;;;;;;;;;-0.20;85.80;;;;;;5004281;28;87094;-45
2021/12/24 01:18:07;;;;;;;;;;;-0.20;86.00;;;;;;5007886;28;89484;-45
2021/12/24 01:26:04;;;;;;;;;;;-0.20;85.90;;;;;;5003595;28;88752;-45
2021/12/24 01:44:36;;;;;;;;;;;-0.20;85.70;;;;;;5004975;28;86638;-45
2021/12/24 01:47:04;;;;;;;;;;;-0.20;85.70;;;;;;5004023;28;87966;-45
2021/12/24 01:49:29;;;;;;;;;;;-0.20;85.80;;;;;;5004225;28;87209;-45
2021/12/24 01:51:55;;;;;;;;;;;-0.20;85.70;;;;;;5003809;28;87809;-45
2021/12/24 01:54:20;;;;;;;;;;;-0.20;85.70;;;;;;5003696;28;89419;-45
2021/12/24 01:56:46;;;;;;;;;;;-0.20;85.50;;;;;;5004151;28;87095;-45
2021/12/24 01:59:12;;;;;;;;;;;-0.20;85.70;;;;;;5004131;28;88944;-45
2021/12/24 02:01:38;;;;;;;;;;;-0.20;85.70;;;;;;5003404;28;88305;-45
2021/12/24 02:04:03;;;;;;;;;;;-0.20;85.60;;;;;;5006833;28;87078;-45
2021/12/24 02:06:29;;;;;;;;;;;-0.20;85.60;;;;;;5003762;28;89235;-45
2021/12/24 02:08:55;;;;;;;;;;;-0.20;85.50;;;;;;5004555;28;86348;-45
2021/12/24 02:11:20;;;;;;;;;;;-0.10;85.50;;;;;;5003838;28;88253;-45
2021/12/24 02:13:46;;;;;;;;;;;-0.20;85.50;;;;;;5003339;28;89544;-45
2021/12/24 02:29:16;;;;;;;;;;;-0.20;85.30;;;;;;5003890;28;87095;-45
2021/12/24 02:31:43;;;;;;;;;;;-0.20;85.50;;;;;;5003688;28;88931;-45
2021/12/24 02:34:09;;;;;;;;;;;-0.20;85.50;;;;;;5003710;28;87858;-45
2021/12/24 02:36:34;;;;;;;;;;;-0.20;85.50;;;;;;5003403;28;87265;-45
2021/12/24 02:39:00;;;;;;;;;;;-0.20;85.40;;;;;;5003496;28;87875;-45
2021/12/24 02:41:25;;;;;;;;;;;-0.20;85.30;;;;;;5002129;28;90557;-45
2021/12/24 02:43:51;;;;;;;;;;;-0.20;85.60;;;;;;5003365;28;87004;-45
2021/12/24 02:49:16;;;;;;;;;;;-0.20;85.70;;;;;;5001721;28;87075;-45
2021/12/24 02:54:26;;;;;;;;;;;-0.20;85.60;;;;;;5000994;28;87292;-46
2021/12/24 02:56:55;;;;;;;;;;;-0.20;85.80;;;;;;5003627;28;87119;-45
2021/12/24 02:59:26;;;;;;;;;;;-0.20;85.90;;;;;;5007391;28;89161;-45
2021/12/24 03:01:52;;;;;;;;;;;-0.30;85.90;;;;;;5006495;28;89213;-45
2021/12/24 03:04:17;;;;;;;;;;;-0.30;85.90;;;;;;5006750;28;87023;-45
2021/12/24 03:06:45;;;;;;;;;;;-0.20;85.90;;;;;;5006412;28;87875;-45
2021/12/24 03:09:13;;;;;;;;;;;-0.20;85.70;;;;;;5009223;28;89870;-45
2021/12/24 03:11:38;;;;;;;;;;;-0.30;85.70;;;;;;5006620;28;88278;-45
2021/12/24 03:14:05;;;;;;;;;;;-0.30;85.80;;;;;;5006406;28;87884;-45
2021/12/24 03:16:31;;;;;;;;;;;-0.20;85.60;;;;;;5006060;28;87189;-45
2021/12/24 03:18:57;;;;;;;;;;;-0.20;85.70;;;;;;5006451;28;88664;-45
2021/12/24 03:26:30;;;;;;;;;;;-0.20;85.40;;;;;;5005528;28;86775;-45
2021/12/24 03:28:56;;;;;;;;;;;-0.20;85.50;;;;;;5005890;28;89726;-45
2021/12/24 03:31:21;;;;;;;;;;;-0.20;85.50;;;;;;5008602;28;88105;-46
2021/12/24 03:33:48;;;;;;;;;;;-0.20;85.50;;;;;;5005975;28;90207;-45
2021/12/24 03:36:14;;;;;;;;;;;-0.20;85.30;;;;;;5006586;28;87104;-45
2021/12/24 03:38:40;;;;;;;;;;;-0.20;85.30;;;;;;5006401;28;89315;-45
2021/12/24 03:41:05;;;;;;;;;;;-0.20;85.30;;;;;;5005841;28;88948;-45
2021/12/24 03:43:31;;;;;;;;;;;-0.20;85.50;;;;;;5006049;28;87109;-45
2021/12/24 03:46:04;;;;;;;;;;;-0.20;85.20;;;;;;5006071;28;88961;-45
2021/12/24 03:48:54;;;;;;;;;;;-0.20;85.30;;;;;;5006502;28;88793;-45
2021/12/24 03:56:47;;;;;;;;;;;-0.20;85.30;;;;;;5002669;28;87862;-45
2021/12/24 03:59:13;;;;;;;;;;;-0.20;85.30;;;;;;5006031;28;90071;-45
2021/12/24 04:01:39;;;;;;;;;;;-0.20;85.30;;;;;;5005478;28;89446;-45
2021/12/24 04:04:05;;;;;;;;;;;-0.20;85.00;;;;;;5005971;28;87116;-45
2021/12/24 04:06:31;;;;;;;;;;;-0.20;85.10;;;;;;5005814;28;87916;-45
2021/12/24 04:08:57;;;;;;;;;;;-0.10;85.10;;;;;;5005300;28;89834;-45
2021/12/24 04:11:22;;;;;;;;;;;-0.20;85.00;;;;;;5005582;28;87146;-45
2021/12/24 04:13:48;;;;;;;;;;;-0.20;85.10;;;;;;5006098;28;88823;-45
2021/12/24 04:16:14;;;;;;;;;;;-0.20;85.10;;;;;;5007920;28;89105;-45
2021/12/24 04:26:45;;;;;;;;;;;-0.20;85.20;;;;;;5005932;28;87063;-45
2021/12/24 04:29:10;;;;;;;;;;;-0.20;85.10;;;;;;5005187;28;89597;-45
2021/12/24 04:31:46;;;;;;;;;;;-0.20;84.80;;;;;;5005486;28;87120;-45
2021/12/24 04:34:13;;;;;;;;;;;-0.20;85.50;;;;;;5005139;28;89267;-45
2021/12/24 05:01:41;;;;;;;;;;;-0.20;84.80;;;;;;5007738;28;86910;-46
2021/12/24 05:04:09;;;;;;;;;;;-0.20;84.70;;;;;;5004482;28;89218;-45
2021/12/24 05:06:40;;;;;;;;;;;-0.20;84.90;;;;;;5005368;28;86408;-45
2021/12/24 05:09:09;;;;;;;;;;;-0.20;85.00;;;;;;5005241;28;86826;-46
2021/12/24 05:11:36;;;;;;;;;;;-0.20;84.70;;;;;;5004337;28;89585;-45
2021/12/24 05:14:02;;;;;;;;;;;-0.20;84.90;;;;;;5003987;28;87799;-45
2021/12/24 05:16:41;;;;;;;;;;;-0.20;84.90;;;;;;5004722;28;88641;-45
2021/12/24 05:21:47;;;;;;;;;;;-0.10;84.60;;;;;;5003611;28;87006;-45
2021/12/24 05:24:17;;;;;;;;;;;-0.20;84.70;;;;;;5007169;28;89062;-45
2021/12/24 05:26:44;;;;;;;;;;;-0.20;84.70;;;;;;5004578;28;87081;-45
2021/12/24 05:29:12;;;;;;;;;;;-0.20;84.80;;;;;;5004518;28;88670;-45
2021/12/24 05:31:37;;;;;;;;;;;-0.20;84.80;;;;;;5004480;28;88859;-45
2021/12/24 05:34:03;;;;;;;;;;;-0.20;84.80;;;;;;5004621;28;87106;-45
2021/12/24 05:36:29;;;;;;;;;;;-0.20;84.90;;;;;;5004558;28;86816;-45
2021/12/24 05:38:56;;;;;;;;;;;-0.20;84.80;;;;;;5003272;28;90690;-45
2021/12/24 05:41:21;;;;;;;;;;;-0.20;85.10;;;;;;5004156;28;87082;-45
2021/12/24 05:43:47;;;;;;;;;;;-0.20;84.80;;;;;;5004276;28;89173;-45
2021/12/24 05:46:12;;;;;;;;;;;-0.20;84.80;;;;;;5006645;28;89558;-46
2021/12/24 05:48:38;;;;;;;;;;;-0.20;84.90;;;;;;5004126;28;89079;-45
2021/12/24 05:51:04;;;;;;;;;;;-0.20;84.80;;;;;;5004165;28;88085;-45
2021/12/24 05:53:30;;;;;;;;;;;-0.20;84.70;;;;;;5004136;28;86963;-45
2021/12/24 05:55:55;;;;;;;;;;;-0.20;84.70;;;;;;5004856;28;89108;-45
2021/12/24 05:58:21;;;;;;;;;;;-0.20;84.80;;;;;;5004036;28;89209;-45
2021/12/24 06:00:48;;;;;;;;;;;-0.30;84.90;;;;;;5003901;28;86935;-45
2021/12/24 06:03:14;;;;;;;;;;;-0.30;85.20;;;;;;5002111;28;90815;-46
2021/12/24 06:05:39;;;;;;;;;;;-0.20;85.00;;;;;;5003542;28;89502;-45
2021/12/24 06:08:05;;;;;;;;;;;-0.30;85.10;;;;;;5006707;28;87109;-45
2021/12/24 06:10:31;;;;;;;;;;;-0.30;84.80;;;;;;5003220;28;88323;-46
2021/12/24 06:12:57;;;;;;;;;;;-0.30;85.10;;;;;;5003896;28;87136;-45
2021/12/24 06:15:25;;;;;;;;;;;-0.30;85.20;;;;;;5003450;28;88907;-45
2021/12/24 06:17:53;;;;;;;;;;;-0.20;85.10;;;;;;5003504;28;89688;-45
2021/12/24 06:20:19;;;;;;;;;;;-0.20;85.00;;;;;;5004025;28;86442;-45
2021/12/24 06:22:45;;;;;;;;;;;-0.20;84.70;;;;;;5004044;28;87112;-45
2021/12/24 06:25:10;;;;;;;;;;;-0.30;84.80;;;;;;5003317;28;89797;-45
2021/12/24 06:27:36;;;;;;;;;;;-0.30;85.20;;;;;;5003322;28;88101;-45
2021/12/24 06:30:03;;;;;;;;;;;-0.30;84.70;;;;;;5006204;28;89883;-45
2021/12/24 06:32:29;;;;;;;;;;;-0.30;85.10;;;;;;5002444;28;87084;-45
2021/12/24 06:34:54;;;;;;;;;;;-0.30;85.20;;;;;;5003491;28;89026;-45
2021/12/24 06:37:20;;;;;;;;;;;-0.30;84.80;;;;;;5003000;28;89206;-45
2021/12/24 06:39:46;;;;;;;;;;;-0.30;85.40;;;;;;5003076;28;87138;-45
2021/12/24 06:42:11;;;;;;;;;;;-0.30;85.30;;;;;;5003382;28;88860;-45
2021/12/24 06:44:37;;;;;;;;;;;-0.30;85.00;;;;;;5003669;28;87130;-45
2021/12/24 06:47:04;;;;;;;;;;;-0.30;85.10;;;;;;5003424;28;87128;-45
2021/12/24 06:49:29;;;;;;;;;;;-0.20;85.10;;;;;;5006031;28;87949;-46
2021/12/24 06:51:55;;;;;;;;;;;-0.30;84.90;;;;;;5002515;28;87957;-46
2021/12/24 06:54:20;;;;;;;;;;;-0.30;84.90;;;;;;5002987;28;90178;-45
2021/12/24 06:56:46;;;;;;;;;;;-0.30;84.80;;;;;;5002911;28;89543;-47
2021/12/24 06:59:11;;;;;;;;;;;-0.30;84.70;;;;;;5003227;28;87007;-46
2021/12/24 07:01:37;;;;;;;;;;;-0.30;85.30;;;;;;5003178;28;88873;-45
2021/12/24 07:04:03;;;;;;;;;;;-0.30;84.80;;;;;;5002871;28;89372;-45
2021/12/24 07:06:28;;;;;;;;;;;-0.30;85.30;;;;;;5003372;28;87102;-45
2021/12/24 07:08:54;;;;;;;;;;;-0.30;84.80;;;;;;5003616;28;87984;-45
2021/12/24 07:11:20;;;;;;;;;;;-0.30;85.00;;;;;;5005883;28;87872;-45
2021/12/24 07:13:46;;;;;;;;;;;-0.30;84.90;;;;;;5003059;28;88822;-45
2021/12/24 07:16:11;;;;;;;;;;;-0.30;84.90;;;;;;5001401;28;90248;-45
2021/12/24 07:18:38;;;;;;;;;;;-0.30;85.00;;;;;;5003252;28;87172;-45
2021/12/24 07:21:04;;;;;;;;;;;-0.40;85.00;;;;;;5002958;28;87909;-45
2021/12/24 07:23:29;;;;;;;;;;;-0.40;85.00;;;;;;5002495;28;87453;-45
2021/12/24 07:25:55;;;;;;;;;;;-0.40;85.00;;;;;;5003230;28;87081;-45
2021/12/24 07:28:20;;;;;;;;;;;-0.30;85.00;;;;;;5002900;28;88959;-45
2021/12/24 07:30:46;;;;;;;;;;;-0.30;85.10;;;;;;5002468;28;88589;-45
2021/12/24 07:33:14;;;;;;;;;;;-0.30;85.20;;;;;;5006581;28;86387;-45
2021/12/24 07:35:43;;;;;;;;;;;-0.30;85.30;;;;;;5002528;28;88009;-45
2021/12/24 07:38:09;;;;;;;;;;;-0.40;85.10;;;;;;5002808;28;87109;-45
2021/12/24 07:40:36;;;;;;;;;;;-0.30;85.40;;;;;;5002358;28;87818;-45
2021/12/24 07:43:01;;;;;;;;;;;-0.30;85.20;;;;;;5002912;28;89755;-47
2021/12/24 07:45:27;;;;;;;;;;;-0.30;84.90;;;;;;5006350;28;87136;-45
2021/12/24 07:48:09;;;;;;;;;;;-0.30;85.20;;;;;;5006346;28;88915;-45
2021/12/24 07:53:02;;;;;;;;;;;-0.20;84.60;;;;;;5006045;28;86869;-45
2021/12/24 07:55:28;;;;;;;;;;;-0.20;84.60;;;;;;5008472;28;88696;-45
2021/12/24 07:57:53;;;;;;;;;;;-0.30;84.90;;;;;;5006457;28;86121;-45
2021/12/24 08:00:22;;;;;;;;;;;-0.30;85.00;;;;;;5006214;28;86943;-45
2021/12/24 08:02:48;;;;;;;;;;;-0.30;85.20;;;;;;5005606;28;89640;-45
2021/12/24 08:05:14;;;;;;;;;;;-0.30;85.30;;;;;;5005073;28;88055;-45
2021/12/24 08:07:39;;;;;;;;;;;-0.30;85.00;;;;;;5006091;28;88285;-45
2021/12/24 08:10:06;;;;;;;;;;;-0.30;85.30;;;;;;5005718;28;88225;-45
2021/12/24 08:12:31;;;;;;;;;;;-0.30;85.30;;;;;;5006002;28;87144;-45
2021/12/24 08:14:57;;;;;;;;;;;-0.30;84.90;;;;;;5005339;28;90354;-45
2021/12/24 08:17:22;;;;;;;;;;;-0.20;85.10;;;;;;5008332;28;89619;-45
2021/12/24 08:19:48;;;;;;;;;;;-0.30;84.80;;;;;;5005841;28;87370;-45
2021/12/24 08:22:13;;;;;;;;;;;-0.30;85.10;;;;;;5005706;28;87342;-45
2021/12/24 08:24:39;;;;;;;;;;;-0.20;85.00;;;;;;5005526;28;87184;-45
2021/12/24 08:27:05;;;;;;;;;;;-0.20;85.40;;;;;;5005446;28;88964;-45
2021/12/24 08:29:31;;;;;;;;;;;-0.20;84.90;;;;;;5004384;28;90145;-45
2021/12/24 08:31:56;;;;;;;;;;;-0.20;84.70;;;;;;5005485;28;87305;-45
2021/12/24 08:34:22;;;;;;;;;;;-0.20;84.90;;;;;;5005555;28;88121;-45
2021/12/24 08:36:49;;;;;;;;;;;-0.10;85.10;;;;;;5004640;28;89486;-45
2021/12/24 08:39:16;;;;;;;;;;;-0.10;84.60;;;;;;5008385;28;87085;-45
2021/12/24 08:41:42;;;;;;;;;;;-0.20;84.80;;;;;;5003545;28;88506;-45
2021/12/24 08:44:08;;;;;;;;;;;-0.10;85.40;;;;;;5005448;28;87111;-45
2021/12/24 08:46:34;;;;;;;;;;;0.00;84.90;;;;;;5005601;28;88965;-45
2021/12/24 08:48:59;;;;;;;;;;;-0.10;84.80;;;;;;5004815;28;88268;-45
2021/12/24 08:51:25;;;;;;;;;;;0.00;85.00;;;;;;5004859;28;87149;-45
2021/12/24 08:53:51;;;;;;;;;;;0.00;85.10;;;;;;5004395;28;89037;-45
2021/12/24 08:56:16;;;;;;;;;;;0.00;84.90;;;;;;5003942;28;89791;-45
2021/12/24 08:58:42;;;;;;;;;;;0.00;85.10;;;;;;5007784;28;87176;-45
2021/12/24 09:01:07;;;;;;;;;;;0.00;85.10;;;;;;5004635;28;89426;-45
2021/12/24 09:03:33;;;;;;;;;;;0.10;85.30;;;;;;5004952;28;87129;-45
2021/12/24 09:05:58;;;;;;;;;;;0.00;85.70;;;;;;5005076;28;87272;-45
2021/12/24 09:08:24;;;;;;;;;;;0.00;85.60;;;;;;5004441;28;89378;-45
2021/12/24 09:10:50;;;;;;;;;;;0.10;85.70;;;;;;5005331;28;86342;-45
2021/12/24 09:13:15;;;;;;;;;;;0.10;85.90;;;;;;5005123;28;86894;-45
2021/12/24 09:15:41;;;;;;;;;;;0.00;85.90;;;;;;5003953;28;89453;-45
2021/12/24 09:18:06;;;;;;;;;;;0.00;85.90;;;;;;5004375;28;87945;-45
2021/12/24 09:20:37;;;;;;;;;;;0.00;85.90;;;;;;5007300;28;88238;-45
2021/12/24 09:23:03;;;;;;;;;;;0.10;86.10;;;;;;5004905;28;86989;-45
2021/12/24 09:25:29;;;;;;;;;;;0.10;85.90;;;;;;5004715;28;88887;-45
2021/12/24 09:27:55;;;;;;;;;;;0.10;86.10;;;;;;5004295;28;88040;-45
2021/12/24 09:30:21;;;;;;;;;;;0.10;85.90;;;;;;5004456;28;87190;-45
2021/12/24 09:32:47;;;;;;;;;;;0.10;86.10;;;;;;5004529;28;88200;-45
2021/12/24 09:35:13;;;;;;;;;;;0.10;86.20;;;;;;5004199;28;89016;-45
2021/12/24 09:37:39;;;;;;;;;;;0.10;86.40;;;;;;5004343;28;87120;-45
2021/12/24 09:40:06;;;;;;;;;;;0.10;86.40;;;;;;5004385;28;88940;-45
2021/12/24 09:42:32;;;;;;;;;;;0.10;86.30;;;;;;5006210;28;88990;-45
2021/12/24 09:44:57;;;;;;;;;;;0.10;86.40;;;;;;5004187;28;88822;-46
2021/12/24 09:47:23;;;;;;;;;;;0.10;86.60;;;;;;5004147;28;88164;-45
2021/12/24 09:49:49;;;;;;;;;;;0.20;86.40;;;;;;5004144;28;87180;-45
2021/12/24 09:52:14;;;;;;;;;;;0.10;86.70;;;;;;5004296;28;88367;-45
2021/12/24 09:54:42;;;;;;;;;;;0.20;87.00;;;;;;5004071;28;87859;-45
2021/12/24 09:57:08;;;;;;;;;;;0.20;86.70;;;;;;5004085;28;87068;-45
2021/12/24 09:59:33;;;;;;;;;;;0.20;86.80;;;;;;5004587;28;88986;-45
2021/12/24 10:02:00;;;;;;;;;;;0.20;86.90;;;;;;5003515;28;89296;-45
2021/12/24 10:04:30;;;;;;;;;;;0.20;86.70;;;;;;5006790;28;87017;-45
2021/12/24 10:06:59;;;;;;;;;;;0.20;86.50;;;;;;5003013;28;90329;-45
2021/12/24 10:09:44;;;;;;;;;;;0.20;86.60;;;;;;5003876;28;87164;-45
2021/12/24 10:12:13;;;;;;;;;;;0.20;86.80;;;;;;5002817;28;90537;-45
2021/12/24 10:14:47;;;;;;;;;;;0.30;86.40;;;;;;5002906;28;89427;-45
2021/12/24 10:17:19;;;;;;;;;;;0.30;86.60;;;;;;5003730;28;86971;-44
2021/12/24 10:19:53;;;;;;;;;;;0.30;86.60;;;;;;5003725;28;88036;-45
2021/12/24 10:22:19;;;;;;;;;;;0.30;86.20;;;;;;5003392;28;89457;-45
2021/12/24 10:25:03;;;;;;;;;;;0.30;86.60;;;;;;5004239;28;86389;-45
2021/12/24 10:27:31;;;;;;;;;;;0.30;86.20;;;;;;5006279;28;88216;-45
2021/12/24 10:29:56;;;;;;;;;;;0.40;86.60;;;;;;5003627;28;87201;-45
2021/12/24 10:32:22;;;;;;;;;;;0.40;86.60;;;;;;5003149;28;87923;-46
2021/12/24 10:34:47;;;;;;;;;;;0.40;86.20;;;;;;5003234;28;88733;-45
2021/12/24 10:37:24;;;;;;;;;;;0.40;86.60;;;;;;5003437;28;87024;-45
2021/12/24 10:40:00;;;;;;;;;;;0.40;86.20;;;;;;5003629;28;88584;-45
2021/12/24 10:42:31;;;;;;;;;;;0.40;86.20;;;;;;5002921;28;89348;-45
2021/12/24 10:44:58;;;;;;;;;;;0.40;86.20;;;;;;5003204;28;87159;-45
2021/12/24 10:47:26;;;;;;;;;;;0.40;86.00;;;;;;5003677;28;87452;-45
2021/12/24 10:53:34;;;;;;;;;;;0.50;85.90;;;;;;5003512;28;87060;-45
2021/12/24 10:55:35;;;;;;;;;;;0.50;86.40;;;;;;5001769;28;87369;-45
2021/12/24 10:58:01;;;;;;;;;;;0.50;86.40;;;;;;5002673;28;87995;-45
2021/12/24 11:00:41;;;;;;;;;;;0.50;86.40;;;;;;5003278;28;89929;-45
2021/12/24 11:03:09;;;;;;;;;;;0.50;86.20;;;;;;5002706;28;89441;-45
2021/12/24 11:05:41;;;;;;;;;;;0.50;86.40;;;;;;5003262;28;87105;-45
2021/12/24 11:08:09;;;;;;;;;;;0.50;86.00;;;;;;5003158;28;87209;-45
2021/12/24 11:10:39;;;;;;;;;;;0.60;86.40;;;;;;5005559;28;90310;-45
2021/12/24 11:13:10;;;;;;;;;;;0.50;86.20;;;;;;5003196;28;89003;-45
2021/12/24 11:15:41;;;;;;;;;;;0.60;86.00;;;;;;5002636;28;86603;-45
2021/12/24 11:18:08;;;;;;;;;;;0.60;86.30;;;;;;5003946;28;86960;-45
2021/12/24 11:20:34;;;;;;;;;;;0.60;86.60;;;;;;5006774;28;88627;-45
2021/12/24 11:23:02;;;;;;;;;;;0.60;86.40;;;;;;5005471;28;90251;-45
2021/12/24 11:25:31;;;;;;;;;;;0.60;86.50;;;;;;5006452;28;87107;-45
2021/12/24 11:27:57;;;;;;;;;;;0.60;86.60;;;;;;5006559;28;89142;-45
2021/12/24 11:30:24;;;;;;;;;;;0.60;86.70;;;;;;5005929;28;87810;-45
2021/12/24 11:32:49;;;;;;;;;;;0.60;86.60;;;;;;5009478;28;87229;-45
2021/12/24 11:35:15;;;;;;;;;;;0.60;86.70;;;;;;5006207;28;87972;-45
2021/12/24 11:37:44;;;;;;;;;;;0.60;86.80;;;;;;5006379;28;86892;-45
2021/12/24 11:40:10;;;;;;;;;;;0.70;86.40;;;;;;5006677;28;88914;-45
2021/12/24 11:42:39;;;;;;;;;;;0.70;86.70;;;;;;5005761;28;89465;-45
2021/12/24 11:45:06;;;;;;;;;;;0.70;86.40;;;;;;5006162;28;87133;-45
2021/12/24 11:47:32;;;;;;;;;;;0.70;86.50;;;;;;5005728;28;88714;-45
2021/12/24 11:49:57;;;;;;;;;;;0.70;87.00;;;;;;5005663;28;89650;-45
2021/12/24 11:52:25;;;;;;;;;;;0.70;87.00;;;;;;5006308;28;86835;-45
2021/12/24 11:54:53;;;;;;;;;;;0.70;86.80;;;;;;5008489;28;88612;-45
2021/12/24 11:57:22;;;;;;;;;;;0.80;87.00;;;;;;5005955;28;87155;-45
2021/12/24 11:59:48;;;;;;;;;;;0.80;87.20;;;;;;5006005;28;88708;-45
2021/12/24 12:02:32;;;;;;;;;;;0.80;87.20;;;;;;5005738;28;87906;-45
2021/12/24 12:05:14;;;;;;;;;;;0.80;87.10;;;;;;5006361;28;86476;-45
2021/12/24 12:07:40;;;;;;;;;;;0.80;86.90;;;;;;5006161;28;87122;-45
2021/12/24 12:10:07;;;;;;;;;;;0.80;86.70;;;;;;5005509;28;87990;-45
2021/12/24 12:12:36;;;;;;;;;;;0.90;86.60;;;;;;5005194;28;88202;-45
2021/12/24 12:15:20;;;;;;;;;;;0.90;87.00;;;;;;5004926;28;89671;-46
2021/12/24 12:17:54;;;;;;;;;;;0.90;86.80;;;;;;5008401;28;90058;-45
2021/12/24 12:20:48;;;;;;;;;;;0.90;87.00;;;;;;5005659;28;87288;-45
2021/12/24 12:23:35;;;;;;;;;;;0.90;87.30;;;;;;5005496;28;88445;-45
2021/12/24 12:26:00;;;;;;;;;;;0.90;86.80;;;;;;5005594;28;86919;-47
2021/12/24 12:28:26;;;;;;;;;;;0.90;87.10;;;;;;5005618;28;88638;-45
2021/12/24 12:30:53;;;;;;;;;;;1.00;87.30;;;;;;5004483;28;87314;-45
2021/12/24 12:33:22;;;;;;;;;;;0.90;87.30;;;;;;5005309;28;87155;-45
2021/12/24 12:35:47;;;;;;;;;;;1.00;87.20;;;;;;5005443;28;89099;-45
2021/12/24 12:38:23;;;;;;;;;;;1.00;87.30;;;;;;5004513;28;89202;-45
2021/12/24 12:40:49;;;;;;;;;;;1.00;87.00;;;;;;5008319;28;86906;-45
2021/12/24 12:43:15;;;;;;;;;;;1.00;87.10;;;;;;5004922;28;88729;-45
2021/12/24 12:45:42;;;;;;;;;;;1.00;87.20;;;;;;5005003;28;87160;-45
2021/12/24 12:48:12;;;;;;;;;;;1.00;87.30;;;;;;5005437;28;88943;-45
2021/12/24 12:50:40;;;;;;;;;;;1.00;87.10;;;;;;5004827;28;89189;-45
2021/12/24 12:53:27;;;;;;;;;;;1.00;87.20;;;;;;5005260;28;87165;-45
2021/12/24 12:56:08;;;;;;;;;;;1.10;87.20;;;;;;5005545;28;88513;-45
2021/12/24 12:58:33;;;;;;;;;;;1.10;87.40;;;;;;5004709;28;89289;-45
2021/12/24 13:01:10;;;;;;;;;;;1.10;87.10;;;;;;5005073;28;87078;-45
2021/12/24 13:03:55;;;;;;;;;;;1.10;87.30;;;;;;5006932;28;87842;-45
2021/12/24 13:06:21;;;;;;;;;;;1.10;87.20;;;;;;5004736;28;87050;-45
2021/12/24 13:08:46;;;;;;;;;;;1.10;87.20;;;;;;5004827;28;88875;-46
2021/12/24 13:11:16;;;;;;;;;;;1.10;87.40;;;;;;5004760;28;89155;-45
2021/12/24 13:13:42;;;;;;;;;;;1.20;87.30;;;;;;5005067;28;87140;-45
2021/12/24 13:16:16;;;;;;;;;;;1.10;87.10;;;;;;5004638;28;88695;-45
2021/12/24 13:18:42;;;;;;;;;;;1.20;87.40;;;;;;5004467;28;89417;-45
2021/12/24 13:23:35;;;;;;;;;;;1.20;87.50;;;;;;5007395;28;87092;-46
2021/12/24 13:26:15;;;;;;;;;;;1.20;87.60;;;;;;5004445;28;87040;-45
2021/12/24 13:28:53;;;;;;;;;;;1.20;87.60;;;;;;5004125;28;88992;-45
2021/12/24 13:31:19;;;;;;;;;;;1.30;87.30;;;;;;5004078;28;89598;-45
2021/12/24 13:33:46;;;;;;;;;;;1.30;87.50;;;;;;5004174;28;87284;-45
2021/12/24 13:36:12;;;;;;;;;;;1.30;87.40;;;;;;5004664;28;87254;-45
2021/12/24 13:38:37;;;;;;;;;;;1.30;87.50;;;;;;5004222;28;89831;-45
2021/12/24 13:41:03;;;;;;;;;;;1.30;87.30;;;;;;5003713;28;87148;-46
2021/12/24 13:43:31;;;;;;;;;;;1.30;87.40;;;;;;5004368;28;88942;-45
2021/12/24 13:46:05;;;;;;;;;;;1.30;87.30;;;;;;5007387;28;89074;-46
2021/12/24 13:48:43;;;;;;;;;;;1.30;87.50;;;;;;5004634;28;87167;-45
2021/12/24 13:56:42;;;;;;;;;;;1.40;87.60;;;;;;5004098;28;87521;-46
2021/12/24 13:59:08;;;;;;;;;;;1.40;87.80;;;;;;5003578;28;89657;-45
2021/12/24 14:01:34;;;;;;;;;;;1.40;87.80;;;;;;5004031;28;87126;-46
2021/12/24 14:04:00;;;;;;;;;;;1.40;87.80;;;;;;5004088;28;88856;-46
2021/12/24 14:06:33;;;;;;;;;;;1.40;87.90;;;;;;5003606;28;89764;-46
2021/12/24 14:09:07;;;;;;;;;;;1.40;88.00;;;;;;5006726;28;87025;-45
2021/12/24 14:11:36;;;;;;;;;;;1.40;88.10;;;;;;5004406;28;88832;-46
2021/12/24 14:14:06;;;;;;;;;;;1.40;87.80;;;;;;5003496;28;87232;-46
2021/12/24 14:16:59;;;;;;;;;;;1.40;87.90;;;;;;5003595;28;88933;-46
2021/12/24 14:19:34;;;;;;;;;;;1.50;87.90;;;;;;5002739;28;90629;-46
2021/12/24 14:22:05;;;;;;;;;;;1.50;88.00;;;;;;5003834;28;86972;-46
2021/12/24 14:24:35;;;;;;;;;;;1.50;88.10;;;;;;5003821;28;88970;-45
2021/12/24 14:27:01;;;;;;;;;;;1.50;88.10;;;;;;5003512;28;88605;-46
2021/12/24 14:29:27;;;;;;;;;;;1.50;88.10;;;;;;5003579;28;87199;-46
2021/12/24 14:32:04;;;;;;;;;;;1.50;88.10;;;;;;5006116;28;88819;-46
2021/12/24 14:34:30;;;;;;;;;;;1.50;88.00;;;;;;5003739;28;87023;-46
2021/12/24 14:37:00;;;;;;;;;;;1.50;88.00;;;;;;5004346;28;87743;-45
2021/12/24 14:39:33;;;;;;;;;;;1.60;88.00;;;;;;5001877;28;90298;-47
2021/12/24 14:42:20;;;;;;;;;;;1.50;88.00;;;;;;5003573;28;87034;-45
2021/12/24 14:44:46;;;;;;;;;;;1.60;88.10;;;;;;5002776;28;88094;-46
2021/12/24 14:47:12;;;;;;;;;;;1.60;88.10;;;;;;5003118;28;89381;-46
2021/12/24 14:49:39;;;;;;;;;;;1.60;88.10;;;;;;5003345;28;86950;-46
2021/12/24 14:52:18;;;;;;;;;;;1.60;88.10;;;;;;5003083;28;89327;-46
2021/12/24 14:55:02;;;;;;;;;;;1.60;88.00;;;;;;5005438;28;88760;-46
2021/12/24 14:57:28;;;;;;;;;;;1.60;87.90;;;;;;5003436;28;88672;-46
2021/12/24 14:59:53;;;;;;;;;;;1.60;87.80;;;;;;5002998;28;90104;-46
2021/12/24 15:02:19;;;;;;;;;;;1.70;87.80;;;;;;5003697;28;86464;-46
2021/12/24 15:04:53;;;;;;;;;;;1.60;87.80;;;;;;5003214;28;89053;-46
2021/12/24 15:07:19;;;;;;;;;;;1.70;87.90;;;;;;5002951;28;89019;-46
2021/12/24 15:09:46;;;;;;;;;;;1.60;87.70;;;;;;5002191;28;88233;-46
2021/12/24 15:12:22;;;;;;;;;;;1.70;87.90;;;;;;5003223;28;89654;-46
2021/12/24 15:14:48;;;;;;;;;;;1.70;87.70;;;;;;5002286;28;88628;-46
2021/12/24 15:17:13;;;;;;;;;;;1.70;87.60;;;;;;5006073;28;86815;-46
2021/12/24 15:19:39;;;;;;;;;;;1.70;87.60;;;;;;5001297;28;90815;-46
2021/12/24 15:22:04;;;;;;;;;;;1.70;87.50;;;;;;5003121;28;87166;-46
2021/12/24 15:24:30;;;;;;;;;;;1.70;87.40;;;;;;5002843;28;88813;-46
2021/12/24 15:26:55;;;;;;;;;;;1.80;87.40;;;;;;5002957;28;88449;-46
2021/12/24 15:29:21;;;;;;;;;;;1.80;87.40;;;;;;5002911;28;87147;-46
2021/12/24 15:31:47;;;;;;;;;;;1.80;87.20;;;;;;5003109;28;87811;-46
2021/12/24 15:34:12;;;;;;;;;;;1.80;87.30;;;;;;5001981;28;90500;-46
2021/12/24 15:36:38;;;;;;;;;;;1.80;87.40;;;;;;5006006;28;87034;-45
2021/12/24 15:39:04;;;;;;;;;;;1.80;87.40;;;;;;5001951;28;89629;-45
2021/12/24 15:41:30;;;;;;;;;;;1.80;87.30;;;;;;5002526;28;87136;-46
2021/12/24 15:43:55;;;;;;;;;;;1.80;87.30;;;;;;5002791;28;89224;-46
2021/12/24 15:46:21;;;;;;;;;;;1.80;87.30;;;;;;5001129;28;91238;-46
2021/12/24 15:48:47;;;;;;;;;;;1.80;87.40;;;;;;5002717;28;87233;-46
2021/12/24 15:51:12;;;;;;;;;;;1.80;87.50;;;;;;5003153;28;89205;-46
2021/12/24 15:53:38;;;;;;;;;;;1.90;87.60;;;;;;5001789;28;89761;-46
2021/12/24 15:56:06;;;;;;;;;;;1.90;87.40;;;;;;5002466;28;86861;-46
2021/12/24 15:58:36;;;;;;;;;;;1.80;87.30;;;;;;5004584;28;88711;-46
2021/12/24 16:01:03;;;;;;;;;;;1.90;87.40;;;;;;5002429;28;86977;-46
2021/12/24 16:03:28;;;;;;;;;;;1.90;87.30;;;;;;5002589;28;88769;-46
2021/12/24 16:05:55;;;;;;;;;;;1.90;87.30;;;;;;5005352;28;90027;-46
2021/12/24 16:08:21;;;;;;;;;;;1.90;87.50;;;;;;5005612;28;86959;-46
2021/12/24 16:10:46;;;;;;;;;;;1.90;87.50;;;;;;5006049;28;88899;-45
2021/12/24 16:13:14;;;;;;;;;;;1.90;87.50;;;;;;5005307;28;89840;-46
2021/12/24 16:15:45;;;;;;;;;;;1.90;87.70;;;;;;5005704;28;86499;-46
2021/12/24 16:18:11;;;;;;;;;;;1.90;87.50;;;;;;5005837;28;88149;-46
2021/12/24 16:20:37;;;;;;;;;;;1.90;87.60;;;;;;5008173;28;89296;-46
2021/12/24 16:23:02;;;;;;;;;;;1.90;87.70;;;;;;5004559;28;88121;-46
2021/12/24 16:25:28;;;;;;;;;;;2.00;87.70;;;;;;5005291;28;89373;-46